< < Back
Terminal Aerodrome Forecast


Current Version              Previous Versions:   1  2  3  4  5  6  7  8  9  

Terminal Aerodrome Forecast

346
FTUS44 KMOB 301720
TAFMOB
TAF
KMOB 301720Z 3018/3118 30007KT P6SM VCTS SCT045CB BKN050
     FM310300 20004KT P6SM BKN050
     FM310900 24002KT 4SM BR SCT007
     FM311500 25006KT P6SM SCT045 BKN250=



Latest METAR

754
SAUS80 KWBC 311200 RRA
MTRMOB
METAR KMOB 311156Z 24003KT 6SM BR FEW200 17/16 A3012 RMK AO2 SLP197
T01670161 10189 20167 53008


USA.gov is the U.S. government's official web portal to all federal, state and local government web resources and services.